sensor_id;sensor_type;location;lat;lon;timestamp;P1;durP1;ratioP1;P2;durP2;ratioP2
52650;SDS011;38537;47.226;39.702;2022-10-24T00:01:32;7.35;;;3.63;;
52650;SDS011;38537;47.226;39.702;2022-10-24T00:04:00;6.40;;;3.38;;
52650;SDS011;38537;47.226;39.702;2022-10-24T00:06:27;6.57;;;3.40;;
52650;SDS011;38537;47.226;39.702;2022-10-24T00:08:56;7.40;;;3.90;;
52650;SDS011;38537;47.226;39.702;2022-10-24T00:11:25;5.65;;;3.80;;
52650;SDS011;38537;47.226;39.702;2022-10-24T00:13:54;5.85;;;4.10;;
52650;SDS011;38537;47.226;39.702;2022-10-24T00:16:22;4.25;;;3.60;;
52650;SDS011;38537;47.226;39.702;2022-10-24T00:18:52;4.45;;;3.70;;
52650;SDS011;38537;47.226;39.702;2022-10-24T00:21:20;4.65;;;3.60;;
52650;SDS011;38537;47.226;39.702;2022-10-24T00:23:50;4.25;;;3.30;;
52650;SDS011;38537;47.226;39.702;2022-10-24T00:26:18;3.70;;;3.30;;
52650;SDS011;38537;47.226;39.702;2022-10-24T00:28:45;4.85;;;3.45;;
52650;SDS011;38537;47.226;39.702;2022-10-24T00:31:13;4.70;;;3.90;;
52650;SDS011;38537;47.226;39.702;2022-10-24T00:33:44;4.20;;;3.65;;
52650;SDS011;38537;47.226;39.702;2022-10-24T00:36:16;4.72;;;3.85;;
52650;SDS011;38537;47.226;39.702;2022-10-24T00:38:48;4.60;;;3.33;;
52650;SDS011;38537;47.226;39.702;2022-10-24T00:41:19;5.10;;;3.83;;
52650;SDS011;38537;47.226;39.702;2022-10-24T00:43:49;4.32;;;3.28;;
52650;SDS011;38537;47.226;39.702;2022-10-24T00:46:17;3.50;;;3.20;;
52650;SDS011;38537;47.226;39.702;2022-10-24T00:48:49;3.58;;;2.92;;
52650;SDS011;38537;47.226;39.702;2022-10-24T00:53:54;3.17;;;2.88;;
52650;SDS011;38537;47.226;39.702;2022-10-24T00:56:27;3.20;;;2.90;;
52650;SDS011;38537;47.226;39.702;2022-10-24T00:58:58;3.85;;;2.80;;
52650;SDS011;38537;47.226;39.702;2022-10-24T01:01:30;2.80;;;2.30;;
52650;SDS011;38537;47.226;39.702;2022-10-24T01:04:02;3.10;;;2.35;;
52650;SDS011;38537;47.226;39.702;2022-10-24T01:09:07;2.08;;;1.88;;
52650;SDS011;38537;47.226;39.702;2022-10-24T01:14:42;1.77;;;1.67;;
52650;SDS011;38537;47.226;39.702;2022-10-24T01:20:11;2.45;;;1.90;;
52650;SDS011;38537;47.226;39.702;2022-10-24T01:28:18;1.83;;;1.73;;
52650;SDS011;38537;47.226;39.702;2022-10-24T01:30:51;1.92;;;1.83;;
52650;SDS011;38537;47.226;39.702;2022-10-24T01:33:30;2.33;;;2.00;;
52650;SDS011;38537;47.226;39.702;2022-10-24T01:36:03;1.83;;;1.73;;
52650;SDS011;38537;47.226;39.702;2022-10-24T01:38:44;2.72;;;1.95;;
52650;SDS011;38537;47.226;39.702;2022-10-24T01:41:25;2.00;;;1.80;;
52650;SDS011;38537;47.226;39.702;2022-10-24T01:44:04;2.22;;;2.00;;
52650;SDS011;38537;47.226;39.702;2022-10-24T01:46:41;2.55;;;1.90;;
52650;SDS011;38537;47.226;39.702;2022-10-24T01:49:15;2.20;;;1.80;;
52650;SDS011;38537;47.226;39.702;2022-10-24T01:51:45;3.13;;;2.10;;
52650;SDS011;38537;47.226;39.702;2022-10-24T01:54:19;2.35;;;1.92;;
52650;SDS011;38537;47.226;39.702;2022-10-24T01:56:47;2.97;;;2.20;;
52650;SDS011;38537;47.226;39.702;2022-10-24T02:04:25;2.92;;;1.98;;
52650;SDS011;38537;47.226;39.702;2022-10-24T02:06:55;5.90;;;2.20;;
52650;SDS011;38537;47.226;39.702;2022-10-24T02:09:25;3.17;;;2.20;;
52650;SDS011;38537;47.226;39.702;2022-10-24T02:11:54;2.75;;;2.10;;
52650;SDS011;38537;47.226;39.702;2022-10-24T02:14:26;2.25;;;1.80;;
52650;SDS011;38537;47.226;39.702;2022-10-24T02:17:04;1.90;;;1.65;;
52650;SDS011;38537;47.226;39.702;2022-10-24T02:19:32;2.13;;;1.80;;
52650;SDS011;38537;47.226;39.702;2022-10-24T02:22:10;2.63;;;2.00;;
52650;SDS011;38537;47.226;39.702;2022-10-24T02:24:59;2.60;;;1.70;;
52650;SDS011;38537;47.226;39.702;2022-10-24T02:27:51;2.03;;;1.58;;
52650;SDS011;38537;47.226;39.702;2022-10-24T02:30:23;2.60;;;1.60;;
52650;SDS011;38537;47.226;39.702;2022-10-24T02:32:52;2.78;;;1.70;;
52650;SDS011;38537;47.226;39.702;2022-10-24T02:35:24;1.80;;;1.70;;
52650;SDS011;38537;47.226;39.702;2022-10-24T02:38:01;2.35;;;1.60;;
52650;SDS011;38537;47.226;39.702;2022-10-24T02:40:33;2.78;;;1.48;;
52650;SDS011;38537;47.226;39.702;2022-10-24T02:43:02;1.80;;;1.70;;
52650;SDS011;38537;47.226;39.702;2022-10-24T02:45:33;1.95;;;1.60;;
52650;SDS011;38537;47.226;39.702;2022-10-24T02:48:04;3.15;;;1.65;;
52650;SDS011;38537;47.226;39.702;2022-10-24T02:50:36;2.03;;;1.65;;
52650;SDS011;38537;47.226;39.702;2022-10-24T02:53:08;2.70;;;1.65;;
52650;SDS011;38537;47.226;39.702;2022-10-24T02:55:41;2.90;;;1.80;;
52650;SDS011;38537;47.226;39.702;2022-10-24T02:58:09;3.03;;;1.77;;
52650;SDS011;38537;47.226;39.702;2022-10-24T03:00:36;2.92;;;2.15;;
52650;SDS011;38537;47.226;39.702;2022-10-24T03:03:04;3.30;;;2.17;;
52650;SDS011;38537;47.226;39.702;2022-10-24T03:05:31;2.53;;;2.10;;
52650;SDS011;38537;47.226;39.702;2022-10-24T03:07:59;3.28;;;2.25;;
52650;SDS011;38537;47.226;39.702;2022-10-24T03:10:26;2.80;;;2.17;;
52650;SDS011;38537;47.226;39.702;2022-10-24T03:12:54;3.80;;;2.63;;
52650;SDS011;38537;47.226;39.702;2022-10-24T03:15:23;3.47;;;2.45;;
52650;SDS011;38537;47.226;39.702;2022-10-24T03:17:51;2.67;;;2.38;;
52650;SDS011;38537;47.226;39.702;2022-10-24T03:20:18;3.55;;;2.72;;
52650;SDS011;38537;47.226;39.702;2022-10-24T03:22:45;2.80;;;2.47;;
52650;SDS011;38537;47.226;39.702;2022-10-24T03:25:13;3.72;;;2.88;;
52650;SDS011;38537;47.226;39.702;2022-10-24T03:27:41;3.40;;;3.10;;
52650;SDS011;38537;47.226;39.702;2022-10-24T03:30:09;3.47;;;2.90;;
52650;SDS011;38537;47.226;39.702;2022-10-24T03:32:37;3.75;;;2.90;;
52650;SDS011;38537;47.226;39.702;2022-10-24T03:35:04;4.53;;;3.33;;
52650;SDS011;38537;47.226;39.702;2022-10-24T03:37:37;4.55;;;3.95;;
52650;SDS011;38537;47.226;39.702;2022-10-24T03:40:04;4.68;;;3.67;;
52650;SDS011;38537;47.226;39.702;2022-10-24T03:42:32;4.65;;;4.10;;
52650;SDS011;38537;47.226;39.702;2022-10-24T03:44:59;4.82;;;3.97;;
52650;SDS011;38537;47.226;39.702;2022-10-24T03:47:27;3.95;;;3.58;;
52650;SDS011;38537;47.226;39.702;2022-10-24T03:49:54;4.03;;;3.63;;
52650;SDS011;38537;47.226;39.702;2022-10-24T03:52:22;4.82;;;3.90;;
52650;SDS011;38537;47.226;39.702;2022-10-24T03:54:49;4.63;;;4.22;;
52650;SDS011;38537;47.226;39.702;2022-10-24T03:57:16;5.90;;;4.15;;
52650;SDS011;38537;47.226;39.702;2022-10-24T03:59:44;5.65;;;4.85;;
52650;SDS011;38537;47.226;39.702;2022-10-24T04:02:11;5.90;;;5.30;;
52650;SDS011;38537;47.226;39.702;2022-10-24T04:04:40;5.13;;;4.63;;
52650;SDS011;38537;47.226;39.702;2022-10-24T04:07:08;5.50;;;4.95;;
52650;SDS011;38537;47.226;39.702;2022-10-24T04:09:35;6.50;;;4.93;;
52650;SDS011;38537;47.226;39.702;2022-10-24T04:12:02;7.10;;;5.72;;
52650;SDS011;38537;47.226;39.702;2022-10-24T04:14:30;6.78;;;6.07;;
52650;SDS011;38537;47.226;39.702;2022-10-24T04:16:57;6.40;;;5.55;;
52650;SDS011;38537;47.226;39.702;2022-10-24T04:19:25;7.53;;;5.88;;
52650;SDS011;38537;47.226;39.702;2022-10-24T04:21:55;7.28;;;5.68;;
52650;SDS011;38537;47.226;39.702;2022-10-24T04:24:23;6.93;;;5.53;;
52650;SDS011;38537;47.226;39.702;2022-10-24T04:26:51;6.25;;;5.63;;
52650;SDS011;38537;47.226;39.702;2022-10-24T04:29:18;7.03;;;6.28;;
52650;SDS011;38537;47.226;39.702;2022-10-24T04:31:46;7.55;;;6.25;;
52650;SDS011;38537;47.226;39.702;2022-10-24T04:34:13;7.43;;;6.15;;
52650;SDS011;38537;47.226;39.702;2022-10-24T04:36:41;8.55;;;6.82;;
52650;SDS011;38537;47.226;39.702;2022-10-24T04:39:08;7.50;;;6.72;;
52650;SDS011;38537;47.226;39.702;2022-10-24T04:41:37;7.95;;;6.70;;
52650;SDS011;38537;47.226;39.702;2022-10-24T04:44:04;8.65;;;6.38;;
52650;SDS011;38537;47.226;39.702;2022-10-24T04:46:31;9.30;;;6.05;;
52650;SDS011;38537;47.226;39.702;2022-10-24T04:48:59;8.02;;;7.22;;
52650;SDS011;38537;47.226;39.702;2022-10-24T04:51:26;8.68;;;6.95;;
52650;SDS011;38537;47.226;39.702;2022-10-24T04:53:53;10.27;;;7.20;;
52650;SDS011;38537;47.226;39.702;2022-10-24T04:56:21;8.30;;;7.28;;
52650;SDS011;38537;47.226;39.702;2022-10-24T04:58:50;8.07;;;7.22;;
52650;SDS011;38537;47.226;39.702;2022-10-24T05:01:17;8.73;;;7.18;;
52650;SDS011;38537;47.226;39.702;2022-10-24T05:03:47;9.43;;;6.45;;
52650;SDS011;38537;47.226;39.702;2022-10-24T05:06:15;9.63;;;7.45;;
52650;SDS011;38537;47.226;39.702;2022-10-24T05:08:42;11.57;;;7.53;;
52650;SDS011;38537;47.226;39.702;2022-10-24T05:11:11;9.07;;;7.32;;
52650;SDS011;38537;47.226;39.702;2022-10-24T05:13:41;10.15;;;6.72;;
52650;SDS011;38537;47.226;39.702;2022-10-24T05:16:08;7.40;;;6.35;;
52650;SDS011;38537;47.226;39.702;2022-10-24T05:18:35;9.57;;;6.65;;
52650;SDS011;38537;47.226;39.702;2022-10-24T05:21:03;8.77;;;6.00;;
52650;SDS011;38537;47.226;39.702;2022-10-24T05:23:30;7.07;;;6.32;;
52650;SDS011;38537;47.226;39.702;2022-10-24T05:25:58;9.40;;;5.97;;
52650;SDS011;38537;47.226;39.702;2022-10-24T05:28:26;6.30;;;5.60;;
52650;SDS011;38537;47.226;39.702;2022-10-24T05:30:54;6.82;;;6.13;;
52650;SDS011;38537;47.226;39.702;2022-10-24T05:33:21;8.05;;;5.78;;
52650;SDS011;38537;47.226;39.702;2022-10-24T05:35:49;7.10;;;4.85;;
52650;SDS011;38537;47.226;39.702;2022-10-24T05:38:18;6.53;;;5.30;;
52650;SDS011;38537;47.226;39.702;2022-10-24T05:40:45;6.90;;;5.32;;
52650;SDS011;38537;47.226;39.702;2022-10-24T05:43:15;5.82;;;5.22;;
52650;SDS011;38537;47.226;39.702;2022-10-24T05:45:42;6.05;;;5.35;;
52650;SDS011;38537;47.226;39.702;2022-10-24T05:48:10;6.88;;;5.05;;
52650;SDS011;38537;47.226;39.702;2022-10-24T05:50:37;6.60;;;5.20;;
52650;SDS011;38537;47.226;39.702;2022-10-24T05:53:05;6.05;;;5.20;;
52650;SDS011;38537;47.226;39.702;2022-10-24T05:55:34;5.18;;;4.68;;
52650;SDS011;38537;47.226;39.702;2022-10-24T05:58:03;6.13;;;5.53;;
52650;SDS011;38537;47.226;39.702;2022-10-24T06:00:30;6.45;;;5.32;;
52650;SDS011;38537;47.226;39.702;2022-10-24T06:02:59;5.90;;;5.10;;
52650;SDS011;38537;47.226;39.702;2022-10-24T06:05:28;6.60;;;5.30;;
52650;SDS011;38537;47.226;39.702;2022-10-24T06:07:57;6.30;;;5.38;;
52650;SDS011;38537;47.226;39.702;2022-10-24T06:10:25;6.55;;;5.53;;
52650;SDS011;38537;47.226;39.702;2022-10-24T06:12:53;6.80;;;5.90;;
52650;SDS011;38537;47.226;39.702;2022-10-24T06:15:20;6.30;;;5.70;;
52650;SDS011;38537;47.226;39.702;2022-10-24T06:17:49;6.13;;;5.43;;
52650;SDS011;38537;47.226;39.702;2022-10-24T06:20:17;6.60;;;5.85;;
52650;SDS011;38537;47.226;39.702;2022-10-24T06:22:44;8.07;;;5.80;;
52650;SDS011;38537;47.226;39.702;2022-10-24T06:25:12;7.88;;;6.15;;
52650;SDS011;38537;47.226;39.702;2022-10-24T06:27:40;7.53;;;5.30;;
52650;SDS011;38537;47.226;39.702;2022-10-24T06:30:07;6.90;;;5.53;;
52650;SDS011;38537;47.226;39.702;2022-10-24T06:32:36;5.82;;;5.18;;
52650;SDS011;38537;47.226;39.702;2022-10-24T06:35:11;6.00;;;5.30;;
52650;SDS011;38537;47.226;39.702;2022-10-24T06:37:40;5.95;;;5.35;;
52650;SDS011;38537;47.226;39.702;2022-10-24T06:40:13;6.20;;;5.47;;
52650;SDS011;38537;47.226;39.702;2022-10-24T06:42:42;6.88;;;6.03;;
52650;SDS011;38537;47.226;39.702;2022-10-24T06:45:10;7.10;;;5.60;;
52650;SDS011;38537;47.226;39.702;2022-10-24T06:47:38;7.85;;;6.35;;
52650;SDS011;38537;47.226;39.702;2022-10-24T06:50:05;9.23;;;6.57;;
52650;SDS011;38537;47.226;39.702;2022-10-24T06:52:35;8.93;;;6.80;;
52650;SDS011;38537;47.226;39.702;2022-10-24T06:55:02;9.93;;;6.90;;
52650;SDS011;38537;47.226;39.702;2022-10-24T06:57:30;9.10;;;6.20;;
52650;SDS011;38537;47.226;39.702;2022-10-24T06:59:58;9.85;;;6.68;;
52650;SDS011;38537;47.226;39.702;2022-10-24T07:02:25;8.20;;;6.40;;
52650;SDS011;38537;47.226;39.702;2022-10-24T07:04:53;7.60;;;6.38;;
52650;SDS011;38537;47.226;39.702;2022-10-24T07:07:21;7.10;;;5.78;;
52650;SDS011;38537;47.226;39.702;2022-10-24T07:09:52;11.30;;;6.03;;
52650;SDS011;38537;47.226;39.702;2022-10-24T07:12:23;6.25;;;5.25;;
52650;SDS011;38537;47.226;39.702;2022-10-24T07:14:50;5.88;;;4.90;;
52650;SDS011;38537;47.226;39.702;2022-10-24T07:17:19;5.43;;;4.93;;
52650;SDS011;38537;47.226;39.702;2022-10-24T07:19:53;5.38;;;4.70;;
52650;SDS011;38537;47.226;39.702;2022-10-24T07:22:21;4.68;;;4.10;;
52650;SDS011;38537;47.226;39.702;2022-10-24T07:24:55;5.90;;;4.18;;
52650;SDS011;38537;47.226;39.702;2022-10-24T07:27:23;4.20;;;3.80;;
52650;SDS011;38537;47.226;39.702;2022-10-24T07:29:51;4.10;;;3.70;;
52650;SDS011;38537;47.226;39.702;2022-10-24T07:32:19;4.53;;;3.60;;
52650;SDS011;38537;47.226;39.702;2022-10-24T07:34:47;3.92;;;3.53;;
52650;SDS011;38537;47.226;39.702;2022-10-24T07:37:16;4.50;;;3.40;;
52650;SDS011;38537;47.226;39.702;2022-10-24T07:39:44;4.63;;;3.67;;
52650;SDS011;38537;47.226;39.702;2022-10-24T07:42:12;5.70;;;3.72;;
52650;SDS011;38537;47.226;39.702;2022-10-24T07:44:40;4.43;;;3.47;;
52650;SDS011;38537;47.226;39.702;2022-10-24T07:47:08;4.85;;;3.40;;
52650;SDS011;38537;47.226;39.702;2022-10-24T07:49:36;4.88;;;3.42;;
52650;SDS011;38537;47.226;39.702;2022-10-24T07:52:04;3.72;;;3.40;;
52650;SDS011;38537;47.226;39.702;2022-10-24T07:54:32;4.45;;;3.85;;
52650;SDS011;38537;47.226;39.702;2022-10-24T07:57:04;4.00;;;3.60;;
52650;SDS011;38537;47.226;39.702;2022-10-24T07:59:31;3.92;;;3.50;;
52650;SDS011;38537;47.226;39.702;2022-10-24T08:02:15;6.43;;;4.30;;
52650;SDS011;38537;47.226;39.702;2022-10-24T08:04:43;4.18;;;3.78;;
52650;SDS011;38537;47.226;39.702;2022-10-24T08:07:11;4.95;;;4.30;;
52650;SDS011;38537;47.226;39.702;2022-10-24T08:09:43;5.20;;;4.70;;
52650;SDS011;38537;47.226;39.702;2022-10-24T08:12:12;6.35;;;4.55;;
52650;SDS011;38537;47.226;39.702;2022-10-24T08:14:40;6.22;;;4.60;;
52650;SDS011;38537;47.226;39.702;2022-10-24T08:17:10;5.68;;;4.63;;
52650;SDS011;38537;47.226;39.702;2022-10-24T08:19:38;5.35;;;4.70;;
52650;SDS011;38537;47.226;39.702;2022-10-24T08:22:10;5.60;;;4.85;;
52650;SDS011;38537;47.226;39.702;2022-10-24T08:24:38;6.10;;;4.80;;
52650;SDS011;38537;47.226;39.702;2022-10-24T08:27:05;5.70;;;5.10;;
52650;SDS011;38537;47.226;39.702;2022-10-24T08:29:33;5.60;;;5.00;;
52650;SDS011;38537;47.226;39.702;2022-10-24T08:32:01;6.32;;;5.60;;
52650;SDS011;38537;47.226;39.702;2022-10-24T08:34:28;5.90;;;5.30;;
52650;SDS011;38537;47.226;39.702;2022-10-24T08:36:56;6.47;;;5.50;;
52650;SDS011;38537;47.226;39.702;2022-10-24T08:39:24;6.60;;;5.65;;
52650;SDS011;38537;47.226;39.702;2022-10-24T08:41:56;6.35;;;5.47;;
52650;SDS011;38537;47.226;39.702;2022-10-24T08:44:27;6.28;;;5.68;;
52650;SDS011;38537;47.226;39.702;2022-10-24T08:49:42;7.63;;;6.20;;
52650;SDS011;38537;47.226;39.702;2022-10-24T08:52:41;7.47;;;5.78;;
52650;SDS011;38537;47.226;39.702;2022-10-24T08:55:20;6.70;;;5.60;;
52650;SDS011;38537;47.226;39.702;2022-10-24T08:58:16;6.68;;;5.28;;
52650;SDS011;38537;47.226;39.702;2022-10-24T09:00:51;6.95;;;5.57;;
52650;SDS011;38537;47.226;39.702;2022-10-24T09:03:23;7.90;;;5.35;;
52650;SDS011;38537;47.226;39.702;2022-10-24T09:06:27;5.30;;;4.80;;
52650;SDS011;38537;47.226;39.702;2022-10-24T09:09:00;5.82;;;5.22;;
52650;SDS011;38537;47.226;39.702;2022-10-24T09:14:15;6.70;;;4.95;;
52650;SDS011;38537;47.226;39.702;2022-10-24T09:17:18;5.78;;;4.70;;
52650;SDS011;38537;47.226;39.702;2022-10-24T09:19:55;5.00;;;4.50;;
52650;SDS011;38537;47.226;39.702;2022-10-24T09:22:33;8.55;;;5.00;;
52650;SDS011;38537;47.226;39.702;2022-10-24T09:25:12;6.15;;;5.00;;
52650;SDS011;38537;47.226;39.702;2022-10-24T09:27:43;9.52;;;5.55;;
52650;SDS011;38537;47.226;39.702;2022-10-24T09:30:16;5.93;;;4.65;;
52650;SDS011;38537;47.226;39.702;2022-10-24T09:32:47;6.80;;;4.63;;
52650;SDS011;38537;47.226;39.702;2022-10-24T09:35:20;7.07;;;4.75;;
52650;SDS011;38537;47.226;39.702;2022-10-24T09:37:53;6.65;;;4.70;;
52650;SDS011;38537;47.226;39.702;2022-10-24T09:48:45;7.63;;;4.97;;
52650;SDS011;38537;47.226;39.702;2022-10-24T10:02:27;9.45;;;6.13;;
52650;SDS011;38537;47.226;39.702;2022-10-24T10:07:35;9.05;;;6.18;;
52650;SDS011;38537;47.226;39.702;2022-10-24T10:12:45;8.80;;;5.93;;
52650;SDS011;38537;47.226;39.702;2022-10-24T10:15:31;8.40;;;5.57;;
52650;SDS011;38537;47.226;39.702;2022-10-24T10:18:31;7.72;;;5.75;;
52650;SDS011;38537;47.226;39.702;2022-10-24T10:21:09;9.13;;;5.57;;
52650;SDS011;38537;47.226;39.702;2022-10-24T10:26:22;8.07;;;5.63;;
52650;SDS011;38537;47.226;39.702;2022-10-24T10:34:19;8.00;;;6.05;;
52650;SDS011;38537;47.226;39.702;2022-10-24T10:51:16;7.70;;;6.18;;
52650;SDS011;38537;47.226;39.702;2022-10-24T10:57:27;7.57;;;5.80;;
52650;SDS011;38537;47.226;39.702;2022-10-24T11:10:34;7.68;;;5.30;;
52650;SDS011;38537;47.226;39.702;2022-10-24T11:13:14;6.40;;;5.55;;
52650;SDS011;38537;47.226;39.702;2022-10-24T11:15:47;7.55;;;5.80;;
52650;SDS011;38537;47.226;39.702;2022-10-24T11:18:40;7.10;;;5.53;;
52650;SDS011;38537;47.226;39.702;2022-10-24T11:21:13;7.70;;;5.03;;
52650;SDS011;38537;47.226;39.702;2022-10-24T11:23:54;9.23;;;5.13;;
52650;SDS011;38537;47.226;39.702;2022-10-24T11:26:35;7.50;;;5.80;;
52650;SDS011;38537;47.226;39.702;2022-10-24T11:31:54;6.85;;;5.60;;
52650;SDS011;38537;47.226;39.702;2022-10-24T11:37:40;8.70;;;5.13;;
52650;SDS011;38537;47.226;39.702;2022-10-24T11:40:14;9.68;;;5.78;;
52650;SDS011;38537;47.226;39.702;2022-10-24T11:46:03;6.50;;;5.60;;
52650;SDS011;38537;47.226;39.702;2022-10-24T11:48:42;9.52;;;5.78;;
52650;SDS011;38537;47.226;39.702;2022-10-24T11:51:27;7.68;;;5.68;;
52650;SDS011;38537;47.226;39.702;2022-10-24T11:54:04;7.68;;;5.78;;
52650;SDS011;38537;47.226;39.702;2022-10-24T11:59:35;7.68;;;5.93;;
52650;SDS011;38537;47.226;39.702;2022-10-24T12:21:20;7.90;;;5.78;;
52650;SDS011;38537;47.226;39.702;2022-10-24T12:23:54;8.52;;;5.78;;
52650;SDS011;38537;47.226;39.702;2022-10-24T12:26:27;9.05;;;6.03;;
52650;SDS011;38537;47.226;39.702;2022-10-24T12:29:00;8.82;;;6.38;;
52650;SDS011;38537;47.226;39.702;2022-10-24T12:31:33;8.70;;;6.50;;
52650;SDS011;38537;47.226;39.702;2022-10-24T12:42:12;11.53;;;6.93;;
52650;SDS011;38537;47.226;39.702;2022-10-24T12:44:46;10.48;;;7.15;;
52650;SDS011;38537;47.226;39.702;2022-10-24T13:04:10;10.20;;;7.07;;
52650;SDS011;38537;47.226;39.702;2022-10-24T13:15:12;9.25;;;7.18;;
52650;SDS011;38537;47.226;39.702;2022-10-24T13:23:44;11.15;;;7.75;;
52650;SDS011;38537;47.226;39.702;2022-10-24T13:29:09;10.13;;;7.30;;
52650;SDS011;38537;47.226;39.702;2022-10-24T13:31:40;11.75;;;7.55;;
52650;SDS011;38537;47.226;39.702;2022-10-24T13:34:19;10.07;;;7.18;;
52650;SDS011;38537;47.226;39.702;2022-10-24T13:36:56;10.63;;;7.35;;
52650;SDS011;38537;47.226;39.702;2022-10-24T13:39:28;9.18;;;6.90;;
52650;SDS011;38537;47.226;39.702;2022-10-24T13:42:06;11.10;;;6.78;;
52650;SDS011;38537;47.226;39.702;2022-10-24T13:44:58;11.05;;;7.45;;
52650;SDS011;38537;47.226;39.702;2022-10-24T13:50:13;13.13;;;7.75;;
52650;SDS011;38537;47.226;39.702;2022-10-24T13:55:31;12.20;;;7.57;;
52650;SDS011;38537;47.226;39.702;2022-10-24T13:58:10;11.73;;;7.80;;
52650;SDS011;38537;47.226;39.702;2022-10-24T14:00:41;12.43;;;7.90;;
52650;SDS011;38537;47.226;39.702;2022-10-24T14:03:16;14.85;;;8.20;;
52650;SDS011;38537;47.226;39.702;2022-10-24T14:11:21;13.77;;;8.85;;
52650;SDS011;38537;47.226;39.702;2022-10-24T14:13:52;10.98;;;7.90;;
52650;SDS011;38537;47.226;39.702;2022-10-24T14:16:28;11.52;;;8.68;;
52650;SDS011;38537;47.226;39.702;2022-10-24T14:21:55;10.90;;;8.20;;
52650;SDS011;38537;47.226;39.702;2022-10-24T14:24:22;9.75;;;7.70;;
52650;SDS011;38537;47.226;39.702;2022-10-24T14:26:50;9.88;;;7.35;;
52650;SDS011;38537;47.226;39.702;2022-10-24T14:29:20;10.63;;;7.22;;
52650;SDS011;38537;47.226;39.702;2022-10-24T14:31:57;10.90;;;7.35;;
52650;SDS011;38537;47.226;39.702;2022-10-24T14:34:29;12.25;;;7.13;;
52650;SDS011;38537;47.226;39.702;2022-10-24T14:37:03;8.32;;;6.80;;
52650;SDS011;38537;47.226;39.702;2022-10-24T14:39:33;10.93;;;7.22;;
52650;SDS011;38537;47.226;39.702;2022-10-24T14:42:02;10.70;;;6.90;;
52650;SDS011;38537;47.226;39.702;2022-10-24T14:44:30;8.93;;;6.70;;
52650;SDS011;38537;47.226;39.702;2022-10-24T14:49:48;10.70;;;7.90;;
52650;SDS011;38537;47.226;39.702;2022-10-24T14:52:27;11.45;;;6.90;;
52650;SDS011;38537;47.226;39.702;2022-10-24T14:54:59;12.73;;;7.50;;
52650;SDS011;38537;47.226;39.702;2022-10-24T14:57:33;9.82;;;6.93;;
52650;SDS011;38537;47.226;39.702;2022-10-24T15:00:04;11.90;;;6.88;;
52650;SDS011;38537;47.226;39.702;2022-10-24T15:02:37;11.68;;;7.15;;
52650;SDS011;38537;47.226;39.702;2022-10-24T15:05:13;9.52;;;6.25;;
52650;SDS011;38537;47.226;39.702;2022-10-24T15:07:52;9.32;;;6.30;;
52650;SDS011;38537;47.226;39.702;2022-10-24T15:10:44;10.25;;;6.70;;
52650;SDS011;38537;47.226;39.702;2022-10-24T15:13:19;10.00;;;6.10;;
52650;SDS011;38537;47.226;39.702;2022-10-24T15:15:49;9.63;;;6.20;;
52650;SDS011;38537;47.226;39.702;2022-10-24T15:18:30;7.78;;;5.68;;
52650;SDS011;38537;47.226;39.702;2022-10-24T15:21:04;8.25;;;5.95;;
52650;SDS011;38537;47.226;39.702;2022-10-24T15:23:34;10.50;;;6.07;;
52650;SDS011;38537;47.226;39.702;2022-10-24T15:26:18;7.35;;;5.80;;
52650;SDS011;38537;47.226;39.702;2022-10-24T15:31:28;11.15;;;6.40;;
52650;SDS011;38537;47.226;39.702;2022-10-24T15:34:00;8.93;;;5.82;;
52650;SDS011;38537;47.226;39.702;2022-10-24T15:36:29;9.55;;;6.03;;
52650;SDS011;38537;47.226;39.702;2022-10-24T15:39:20;11.32;;;5.75;;
52650;SDS011;38537;47.226;39.702;2022-10-24T15:41:47;11.55;;;5.88;;
52650;SDS011;38537;47.226;39.702;2022-10-24T15:46:47;8.93;;;5.97;;
52650;SDS011;38537;47.226;39.702;2022-10-24T15:49:14;9.52;;;6.07;;
52650;SDS011;38537;47.226;39.702;2022-10-24T15:51:42;9.27;;;6.05;;
52650;SDS011;38537;47.226;39.702;2022-10-24T15:54:18;7.90;;;5.90;;
52650;SDS011;38537;47.226;39.702;2022-10-24T15:56:49;8.93;;;6.30;;
52650;SDS011;38537;47.226;39.702;2022-10-24T15:59:17;8.68;;;6.20;;
52650;SDS011;38537;47.226;39.702;2022-10-24T16:01:56;8.85;;;6.32;;
52650;SDS011;38537;47.226;39.702;2022-10-24T16:04:27;8.77;;;6.35;;
52650;SDS011;38537;47.226;39.702;2022-10-24T16:06:54;8.43;;;6.63;;
52650;SDS011;38537;47.226;39.702;2022-10-24T16:09:23;12.52;;;7.18;;
52650;SDS011;38537;47.226;39.702;2022-10-24T16:11:53;9.50;;;6.80;;
52650;SDS011;38537;47.226;39.702;2022-10-24T16:14:21;9.38;;;6.70;;
52650;SDS011;38537;47.226;39.702;2022-10-24T16:16:52;10.98;;;7.50;;
52650;SDS011;38537;47.226;39.702;2022-10-24T16:19:22;10.35;;;7.30;;
52650;SDS011;38537;47.226;39.702;2022-10-24T16:21:52;11.70;;;6.65;;
52650;SDS011;38537;47.226;39.702;2022-10-24T16:24:25;11.15;;;7.68;;
52650;SDS011;38537;47.226;39.702;2022-10-24T16:26:53;9.38;;;7.00;;
52650;SDS011;38537;47.226;39.702;2022-10-24T16:29:22;14.23;;;7.13;;
52650;SDS011;38537;47.226;39.702;2022-10-24T16:31:49;11.48;;;6.95;;
52650;SDS011;38537;47.226;39.702;2022-10-24T16:34:16;9.43;;;6.85;;
52650;SDS011;38537;47.226;39.702;2022-10-24T16:36:44;10.07;;;7.38;;
52650;SDS011;38537;47.226;39.702;2022-10-24T16:39:11;10.20;;;6.95;;
52650;SDS011;38537;47.226;39.702;2022-10-24T16:41:40;13.60;;;7.10;;
52650;SDS011;38537;47.226;39.702;2022-10-24T16:44:12;10.00;;;7.05;;
52650;SDS011;38537;47.226;39.702;2022-10-24T16:46:40;12.60;;;7.18;;
52650;SDS011;38537;47.226;39.702;2022-10-24T16:49:07;11.52;;;6.68;;
52650;SDS011;38537;47.226;39.702;2022-10-24T16:51:34;11.20;;;7.15;;
52650;SDS011;38537;47.226;39.702;2022-10-24T16:54:08;12.80;;;7.40;;
52650;SDS011;38537;47.226;39.702;2022-10-24T16:56:35;13.18;;;7.78;;
52650;SDS011;38537;47.226;39.702;2022-10-24T16:59:03;11.63;;;7.32;;
52650;SDS011;38537;47.226;39.702;2022-10-24T17:01:31;10.23;;;7.43;;
52650;SDS011;38537;47.226;39.702;2022-10-24T17:03:58;11.38;;;7.28;;
52650;SDS011;38537;47.226;39.702;2022-10-24T17:06:27;10.88;;;6.95;;
52650;SDS011;38537;47.226;39.702;2022-10-24T17:08:55;10.77;;;7.03;;
52650;SDS011;38537;47.226;39.702;2022-10-24T17:11:23;9.30;;;6.75;;
52650;SDS011;38537;47.226;39.702;2022-10-24T17:14:10;11.75;;;6.53;;
52650;SDS011;38537;47.226;39.702;2022-10-24T17:16:40;10.13;;;6.07;;
52650;SDS011;38537;47.226;39.702;2022-10-24T17:19:08;9.57;;;5.85;;
52650;SDS011;38537;47.226;39.702;2022-10-24T17:21:45;10.95;;;6.75;;
52650;SDS011;38537;47.226;39.702;2022-10-24T17:24:15;9.93;;;6.05;;
52650;SDS011;38537;47.226;39.702;2022-10-24T17:26:45;9.75;;;6.10;;
52650;SDS011;38537;47.226;39.702;2022-10-24T17:29:26;9.45;;;6.30;;
52650;SDS011;38537;47.226;39.702;2022-10-24T17:31:56;12.35;;;6.38;;
52650;SDS011;38537;47.226;39.702;2022-10-24T17:34:25;8.98;;;6.85;;
52650;SDS011;38537;47.226;39.702;2022-10-24T17:37:04;10.93;;;7.70;;
52650;SDS011;38537;47.226;39.702;2022-10-24T17:39:46;8.85;;;6.60;;
52650;SDS011;38537;47.226;39.702;2022-10-24T17:42:20;9.70;;;6.75;;
52650;SDS011;38537;47.226;39.702;2022-10-24T17:44:48;11.38;;;7.05;;
52650;SDS011;38537;47.226;39.702;2022-10-24T17:47:15;12.02;;;7.15;;
52650;SDS011;38537;47.226;39.702;2022-10-24T17:49:43;10.45;;;6.90;;
52650;SDS011;38537;47.226;39.702;2022-10-24T17:52:12;9.13;;;6.57;;
52650;SDS011;38537;47.226;39.702;2022-10-24T17:54:44;10.30;;;6.60;;
52650;SDS011;38537;47.226;39.702;2022-10-24T17:57:11;10.43;;;6.78;;
52650;SDS011;38537;47.226;39.702;2022-10-24T17:59:38;13.00;;;7.30;;